• Join FlightAware (Why Join?)
  • Login
  • US Flag 
09:02AM EDT


 

Airport Tracker/Info


-or-


 

Live Flight TrackerFlight Track Log ✈ SWA2336 ✈ 11-Apr-2013 ✈ KAUS - KDAL

Flight Track Log - Related Links

Times and Time Zones

All times are in EDT time to prevent confusion due to time zone crossing. See the SWA2336 flight status page for this flight to view local times or setup timezone preferences in your user account.

Time Position Orientation Groundspeed Altitude Reporting Facility
EDT Latitude Longitude Course Direction KTS MPH feet Rate Location/Type
01:24PM 30.2919 -97.5950 23° Northeast 220 253 4,600  Level Houston Center
01:25PM 30.3617 -97.5228 42° Northeast 276 318 8,200 3,000 Climbing Houston Center
01:26PM 30.4253 -97.4558 42° Northeast 298 343 10,800 2,160 Climbing Houston Center
01:27PM 30.5008 -97.3747 43° Northeast 359 413 12,700 2,340 Climbing Houston Center
01:28PM 30.6549 -97.1731 47° Northeast  Level FlightAware Approximate
01:28PM 30.5806 -97.2892 43° Northeast 385 443 15,700  Level Houston Center
01:29PM 30.7231 -97.1051 23° Northeast  Level FlightAware Approximate
01:29PM 30.6578 -97.1986 45° Northeast 393 452 18,200  Level Houston Center
01:30PM 30.7367 -97.1019 46° Northeast 408 470 20,600 1,800 Climbing Houston Center
01:31PM 30.8175 -97.0053 46° Northeast 415 478 22,000 480 Climbing Houston Center
01:33PM 30.9883 -96.8003 46° Northeast 429 494 22,000  Level Fort Worth Center
01:34PM 31.0736 -96.6978 46° Northeast 429 494 22,000  Level Fort Worth Center
01:35PM 31.1542 -96.6000 46° Northeast 422 486 22,000 -240 Level Fort Worth Center
01:36PM 31.2350 -96.5022 46° Northeast 416 479 21,600 -480 Descending Fort Worth Center
01:36PM 31.2483 -96.4867 45° Northeast 412 474 21,400 -840 Descending Houston Center
01:38PM 31.4350 -96.4322 14° North 379 436 20,000 -720 Descending Fort Worth Center
01:38PM 31.4542 -96.4281 11° North 385 443 20,000  Level Houston Center
01:39PM 31.5786 -96.4203 North 382 440 20,000  Level Houston Center
01:40PM 31.6375 -96.4203 360° North 374 430 20,000 -480 Level Fort Worth Center
01:41PM 31.7417 -96.4142 North 379 436 19,300 -1,320 Descending Fort Worth Center
01:42PM 31.8397 -96.4058 North 366 421 17,400 -1,980 Descending Fort Worth Center
01:44PM 32.0214 -96.3917 North 323 372 13,400 -1,980 Descending Fort Worth Center
01:45PM 32.1111 -96.3956 358° North 317 365 11,500 -1,740 Descending Fort Worth Center
01:46PM 32.2028 -96.3872 North 311 358 10,000 -900 Descending Fort Worth Center
01:47PM 32.2844 -96.3936 356° North 299 344 9,700 -540 Descending Fort Worth Center
01:48PM 32.3494 -96.4322 333° Northwest 270 311 9,000 -1,020 Descending Fort Worth Center
01:49PM 32.4144 -96.4758 330° Northwest 265 305 7,700 -1,200 Descending Fort Worth Center
01:50PM 32.4753 -96.5169 330° Northwest 260 299 6,600 -1,080 Descending Fort Worth Center
01:51PM 32.5383 -96.5583 331° Northwest 255 293 5,600 -840 Descending Fort Worth Center
01:52PM 32.5969 -96.5997 329° Northwest 255 293 5,000 -300 Descending Fort Worth Center
01:53PM 32.6494 -96.6336 331° Northwest 255 293 5,000 -420 Level Fort Worth Center
01:54PM 32.6833 -96.6833 309° West 227 261 4,300 -1,020 Descending Dallas / Fort Worth TRACON
01:55PM 32.7333 -96.7333 320° Northwest 222 255 3,300 -1,020 Descending Dallas / Fort Worth TRACON
01:56PM 32.7667 -96.7667 320° Northwest 185 213 2,300 -960 Descending Dallas / Fort Worth TRACON
01:57PM 32.8000 -96.8000 320° Northwest 137 158 1,400 -900 Descending Dallas / Fort Worth TRACON